Time;durP1;ratioP1;P1;durP2;ratioP2;P2;SDS_P1;SDS_P2;PMS_P1;PMS_P2;Temp;Humidity;BMP_temperature;BMP_pressure;BME280_temperature;BME280_humidity;BME280_pressure;Samples;Min_cycle;Max_cycle;Signal;HPM_P1;HPM_P2
2021/10/17 00:00:17;;;;;;;1062.43;997.85;;;;;;;10.68;65.96;101602.38;685301;28;44383;-67
2021/10/17 00:00:38;;;;;;;1064.30;999.60;;;;;;;10.69;66.25;101596.81;683461;28;90629;-67
2021/10/17 00:00:59;;;;;;;1065.75;999.70;;;;;;;10.71;66.34;101602.06;685159;28;23411;-67
2021/10/17 00:01:20;;;;;;;1064.70;999.80;;;;;;;10.73;66.39;101597.34;686068;28;22466;-67
2021/10/17 00:01:43;;;;;;;1056.30;993.05;;;;;;;10.73;66.18;101598.19;684790;28;45307;-67
2021/10/17 00:02:04;;;;;;;1064.70;999.90;;;;;;;10.73;66.26;101600.88;684638;28;44373;-67
2021/10/17 00:02:27;;;;;;;1050.63;987.13;;;;;;;10.76;66.32;101605.13;685707;28;23398;-67
2021/10/17 00:02:49;;;;;;;1064.97;999.90;;;;;;;10.76;66.01;101605.13;683568;28;90688;-67
2021/10/17 00:03:11;;;;;;;1061.07;996.67;;;;;;;10.77;66.08;101602.28;686178;28;23431;-67
2021/10/17 00:03:32;;;;;;;1068.35;999.90;;;;;;;10.78;65.97;101609.41;684975;28;45271;-68
2021/10/17 00:03:53;;;;;;;1067.88;999.90;;;;;;;10.78;65.71;101605.81;685786;28;21540;-67
2021/10/17 00:04:16;;;;;;;1056.47;991.90;;;;;;;10.78;65.96;101611.22;685896;28;23438;-67
2021/10/17 00:04:37;;;;;;;1064.38;999.50;;;;;;;10.79;65.94;101605.66;684043;28;69376;-67
2021/10/17 00:04:59;;;;;;;1061.20;997.03;;;;;;;10.80;65.84;101604.66;685597;28;21682;-67
2021/10/17 00:05:23;;;;;;;1055.05;991.10;;;;;;;10.81;65.85;101606.38;685493;28;39914;-67
2021/10/17 00:05:44;;;;;;;1069.82;999.90;;;;;;;10.83;65.80;101614.31;683330;28;92054;-67
2021/10/17 00:06:07;;;;;;;1073.57;999.90;;;;;;;10.81;65.97;101609.06;684494;28;42691;-67
2021/10/17 00:06:29;;;;;;;1069.82;999.90;;;;;;;10.81;65.92;101600.97;684004;28;69455;-67
2021/10/17 00:06:50;;;;;;;1075.97;999.90;;;;;;;10.80;65.84;101603.81;684951;28;45237;-68
2021/10/17 00:07:11;;;;;;;1071.68;999.90;;;;;;;10.82;65.76;101599.09;686121;28;23534;-67
2021/10/17 00:07:33;;;;;;;1076.28;999.90;;;;;;;10.85;65.68;101609.59;685675;28;21984;-67
2021/10/17 00:07:55;;;;;;;1090.68;999.90;;;;;;;10.84;65.99;101601.66;684374;28;46267;-67
2021/10/17 00:08:16;;;;;;;1070.95;999.90;;;;;;;10.85;65.65;101603.34;686605;28;20903;-67
2021/10/17 00:08:37;;;;;;;1059.43;995.58;;;;;;;10.81;65.70;101594.69;685566;28;47178;-67
2021/10/17 00:09:02;;;;;;;1059.47;995.45;;;;;;;10.84;65.58;101597.09;684258;28;92277;-67
2021/10/17 00:09:23;;;;;;;1066.22;999.90;;;;;;;10.86;65.56;101607.75;686016;28;46181;-67
2021/10/17 00:09:45;;;;;;;1072.90;999.90;;;;;;;10.85;65.78;101598.78;686084;28;45230;-68
2021/10/17 00:10:08;;;;;;;1069.35;999.90;;;;;;;10.87;65.57;101604.88;685529;28;22395;-67
2021/10/17 00:10:33;;;;;;;1078.30;999.90;;;;;;;10.87;65.50;101606.75;684342;28;69406;-67
2021/10/17 00:10:54;;;;;;;1090.20;999.90;;;;;;;10.88;65.51;101609.28;681971;28;115387;-68
2021/10/17 00:11:15;;;;;;;1088.65;999.90;;;;;;;10.90;65.54;101614.53;685821;28;22459;-67
2021/10/17 00:11:37;;;;;;;1085.40;999.90;;;;;;;10.90;65.58;101606.44;686078;28;21414;-67
2021/10/17 00:11:59;;;;;;;1063.60;998.42;;;;;;;10.91;65.48;101610.81;684488;28;45248;-68
2021/10/17 00:12:20;;;;;;;1056.65;992.60;;;;;;;10.91;65.43;101606.28;685255;28;44384;-67
2021/10/17 00:12:42;;;;;;;1062.47;997.90;;;;;;;10.91;65.15;101608.09;685592;28;22418;-68
2021/10/17 00:13:06;;;;;;;1069.28;999.90;;;;;;;10.89;65.09;101602.84;684929;28;44349;-68
2021/10/17 00:13:28;;;;;;;1053.25;989.22;;;;;;;10.91;65.23;101610.81;683604;28;90638;-67
2021/10/17 00:13:50;;;;;;;1061.07;996.03;;;;;;;10.91;65.10;101602.69;684425;28;46309;-67
2021/10/17 00:14:11;;;;;;;1068.07;999.90;;;;;;;10.89;65.17;101602.84;685795;28;21310;-67
2021/10/17 00:14:32;;;;;;;1076.47;999.90;;;;;;;10.90;64.85;101609.13;685094;28;46408;-67
2021/10/17 00:14:53;;;;;;;1073.78;999.90;;;;;;;10.89;65.04;101608.25;684996;28;46313;-68
2021/10/17 00:15:17;;;;;;;1070.45;999.90;;;;;;;10.89;65.18;101600.16;684982;28;43062;-68
2021/10/17 00:15:39;;;;;;;1072.95;999.90;;;;;;;10.87;65.21;101606.75;683303;28;92630;-67
2021/10/17 00:16:00;;;;;;;1070.53;999.90;;;;;;;10.87;64.89;101604.03;684491;28;21558;-68
2021/10/17 00:16:21;;;;;;;1058.18;993.42;;;;;;;10.86;65.13;101600.50;685148;28;46316;-68
2021/10/17 00:16:43;;;;;;;1081.10;999.90;;;;;;;10.84;65.06;101609.75;685709;28;21521;-68
2021/10/17 00:17:05;;;;;;;1075.22;999.90;;;;;;;10.84;64.93;101607.91;684562;28;46314;-67
2021/10/17 00:17:26;;;;;;;1077.30;999.90;;;;;;;10.86;65.34;101613.16;685275;28;44940;-67
2021/10/17 00:17:48;;;;;;;1057.55;992.60;;;;;;;10.85;65.24;101606.06;685113;28;22388;-68
2021/10/17 00:18:10;;;;;;;1064.32;998.90;;;;;;;10.87;65.25;101606.75;685773;28;23520;-68
2021/10/17 00:18:31;;;;;;;1064.80;999.45;;;;;;;10.86;64.99;101610.44;684702;28;69202;-67
2021/10/17 00:18:52;;;;;;;1061.55;996.25;;;;;;;10.81;64.99;101594.69;685842;28;24609;-68
2021/10/17 00:19:13;;;;;;;1057.78;992.63;;;;;;;10.84;65.23;101602.50;686047;28;21567;-68
2021/10/17 00:19:35;;;;;;;1065.60;999.90;;;;;;;10.86;65.25;101605.91;685620;28;22102;-67
2021/10/17 00:19:57;;;;;;;1061.20;996.22;;;;;;;10.86;65.13;101611.31;684609;28;44404;-68
2021/10/17 00:20:20;;;;;;;1064.30;999.17;;;;;;;10.87;64.90;101601.34;686320;28;22374;-68
2021/10/17 00:20:41;;;;;;;1059.55;994.78;;;;;;;10.84;64.87;101597.09;683657;28;92239;-67
2021/10/17 00:21:03;;;;;;;1058.28;993.47;;;;;;;10.87;65.26;101599.47;685138;28;22369;-68
2021/10/17 00:21:26;;;;;;;1069.95;999.90;;;;;;;10.89;65.11;101599.31;685322;28;45204;-68
2021/10/17 00:21:47;;;;;;;1055.47;991.22;;;;;;;10.89;64.93;101599.31;684987;28;46397;-69
2021/10/17 00:22:08;;;;;;;1061.68;996.72;;;;;;;10.89;64.86;101602.03;685750;28;22369;-67
2021/10/17 00:22:29;;;;;;;1054.45;989.95;;;;;;;10.88;65.19;101593.06;686211;28;23463;-67
2021/10/17 00:22:51;;;;;;;1061.82;997.22;;;;;;;10.86;64.79;101597.78;686527;28;22352;-68
2021/10/17 00:23:12;;;;;;;1063.18;998.20;;;;;;;10.88;64.72;101595.78;684467;28;67212;-68
2021/10/17 00:23:34;;;;;;;1055.65;990.97;;;;;;;10.88;64.93;101597.59;686015;28;21503;-67
2021/10/17 00:23:55;;;;;;;1065.78;999.88;;;;;;;10.87;64.96;101594.06;685658;28;21497;-67
2021/10/17 00:24:17;;;;;;;1060.40;995.30;;;;;;;10.88;64.99;101590.38;686546;28;1803;-67
2021/10/17 00:24:38;;;;;;;1065.15;999.65;;;;;;;10.87;65.00;101591.38;684739;28;46342;-68
2021/10/17 00:25:00;;;;;;;1073.70;999.90;;;;;;;10.88;65.00;101589.50;685325;28;22398;-67
2021/10/17 00:25:21;;;;;;;1075.53;999.90;;;;;;;10.89;64.71;101588.50;685790;28;46291;-67
2021/10/17 00:25:42;;;;;;;1079.38;999.90;;;;;;;10.89;64.96;101588.50;685739;28;22556;-67
2021/10/17 00:26:04;;;;;;;1084.07;999.90;;;;;;;10.88;64.69;101589.50;685045;28;24307;-68
2021/10/17 00:26:25;;;;;;;1089.00;999.90;;;;;;;10.89;64.67;101583.09;684472;28;66917;-68
2021/10/17 00:26:47;;;;;;;1079.13;999.90;;;;;;;10.90;64.63;101588.34;685276;28;22411;-68
2021/10/17 00:27:08;;;;;;;1062.85;997.60;;;;;;;10.87;64.89;101577.00;686650;28;1205;-67
2021/10/17 00:27:30;;;;;;;1077.95;999.90;;;;;;;10.91;64.57;101584.66;685652;28;23455;-67
2021/10/17 00:27:51;;;;;;;1078.13;999.90;;;;;;;10.90;64.41;101587.50;684197;28;46313;-67
2021/10/17 00:28:23;;;;;;;1067.15;999.90;;;;;;;10.89;64.64;101586.63;682131;28;137734;-68
2021/10/17 00:28:49;;;;;;;1066.72;999.90;;;;;;;10.91;64.45;101586.47;679477;28;113536;-68
2021/10/17 00:29:10;;;;;;;1073.68;999.90;;;;;;;10.90;64.67;101582.09;682625;28;46431;-68
2021/10/17 00:29:31;;;;;;;1072.13;999.90;;;;;;;10.88;64.64;101587.66;681354;29;23618;-67
2021/10/17 00:29:52;;;;;;;1074.45;999.90;;;;;;;10.87;64.39;101594.06;681153;29;22413;-68
2021/10/17 00:30:15;;;;;;;1068.55;999.90;;;;;;;10.88;64.73;101590.38;682005;28;21496;-67
2021/10/17 00:30:36;;;;;;;1062.63;997.08;;;;;;;10.87;64.48;101595.94;681351;28;69441;-68
2021/10/17 00:30:57;;;;;;;1066.03;999.90;;;;;;;10.88;64.87;101592.19;679812;28;21168;-68
2021/10/17 00:31:21;;;;;;;1073.88;999.90;;;;;;;10.87;64.71;101594.06;678674;29;92392;-67
2021/10/17 00:31:43;;;;;;;1058.85;994.22;;;;;;;10.87;64.74;101599.47;680380;29;22191;-68
2021/10/17 00:32:08;;;;;;;1061.30;996.70;;;;;;;10.87;64.77;101598.63;680797;28;46008;-68
2021/10/17 00:32:30;;;;;;;1061.18;996.58;;;;;;;10.89;64.56;101602.84;679970;28;138246;-68
2021/10/17 00:32:51;;;;;;;1061.18;996.88;;;;;;;10.88;64.83;101600.31;683010;28;22257;-67
2021/10/17 00:33:13;;;;;;;1065.70;999.90;;;;;;;10.87;64.82;101602.19;684122;28;23416;-68
2021/10/17 00:33:34;;;;;;;1057.93;993.45;;;;;;;10.88;64.86;101597.59;680414;29;46395;-68
2021/10/17 00:33:55;;;;;;;1072.78;999.90;;;;;;;10.86;64.63;101599.63;679937;29;22397;-67
2021/10/17 00:34:18;;;;;;;1070.28;999.90;;;;;;;10.86;64.83;101599.63;681138;28;22340;-68
2021/10/17 00:34:40;;;;;;;1065.07;999.90;;;;;;;10.84;64.93;101594.38;681751;28;44351;-67
2021/10/17 00:35:02;;;;;;;1066.67;999.90;;;;;;;10.82;64.97;101594.53;680962;28;69259;-67
2021/10/17 00:35:23;;;;;;;1065.22;999.78;;;;;;;10.83;64.80;101592.72;681673;28;69351;-68
2021/10/17 00:35:44;;;;;;;1070.40;999.90;;;;;;;10.78;65.01;101590.47;682839;28;21539;-67
2021/10/17 00:36:06;;;;;;;1071.47;999.90;;;;;;;10.80;65.17;101587.63;683335;28;43372;-67
2021/10/17 00:36:29;;;;;;;1076.40;999.90;;;;;;;10.78;64.93;101595.88;685777;28;46222;-68
2021/10/17 00:36:50;;;;;;;1071.40;999.90;;;;;;;10.76;65.15;101591.63;683810;28;67480;-68
2021/10/17 00:37:11;;;;;;;1070.60;999.90;;;;;;;10.77;65.03;101593.34;683271;28;23439;-68
2021/10/17 00:37:34;;;;;;;1070.13;999.90;;;;;;;10.75;64.85;101590.78;680347;28;23440;-68
2021/10/17 00:37:56;;;;;;;1067.57;999.90;;;;;;;10.74;64.94;101593.66;677613;29;69223;-68
2021/10/17 00:38:19;;;;;;;1068.50;999.90;;;;;;;10.73;64.98;101591.94;676680;29;22416;-67
2021/10/17 00:38:40;;;;;;;1068.57;999.90;;;;;;;10.72;65.22;101598.34;675720;29;92215;-68
2021/10/17 00:39:02;;;;;;;1067.50;999.90;;;;;;;10.71;64.91;101594.81;681147;28;21526;-68
2021/10/17 00:39:23;;;;;;;1072.47;999.90;;;;;;;10.69;65.30;101596.81;680063;28;46312;-68
2021/10/17 00:39:44;;;;;;;1065.50;999.90;;;;;;;10.69;65.24;101594.13;681465;29;23710;-68
2021/10/17 00:40:08;;;;;;;1063.10;997.85;;;;;;;10.67;65.53;101596.09;684406;28;22508;-67
2021/10/17 00:40:29;;;;;;;1069.22;999.90;;;;;;;10.67;65.26;101596.09;684171;28;92335;-67
2021/10/17 00:40:53;;;;;;;1067.05;999.90;;;;;;;10.69;65.60;101602.22;685409;28;44384;-67
2021/10/17 00:41:14;;;;;;;1068.85;999.90;;;;;;;10.66;65.34;101598.97;686535;28;69372;-68
2021/10/17 00:41:35;;;;;;;1070.70;999.90;;;;;;;10.64;65.55;101594.59;687077;28;46137;-67
2021/10/17 00:41:58;;;;;;;1073.25;999.90;;;;;;;10.67;65.57;101601.50;687206;28;22429;-68
2021/10/17 00:42:19;;;;;;;1070.30;999.90;;;;;;;10.65;65.40;101603.53;682710;28;32779;-67
2021/10/17 00:42:41;;;;;;;1067.10;999.90;;;;;;;10.61;65.44;101600.31;683017;28;21513;-68
2021/10/17 00:43:03;;;;;;;1072.53;999.90;;;;;;;10.59;65.48;101602.28;682671;28;44377;-67
2021/10/17 00:43:24;;;;;;;1077.43;999.90;;;;;;;10.59;65.88;101605.00;679611;29;69282;-67
2021/10/17 00:43:46;;;;;;;1075.85;999.90;;;;;;;10.58;65.85;101599.75;681563;28;22406;-67
2021/10/17 00:44:07;;;;;;;1074.28;999.90;;;;;;;10.55;65.98;101592.81;678771;29;23457;-68
2021/10/17 00:44:28;;;;;;;1075.65;999.90;;;;;;;10.54;65.98;101595.69;679250;29;24837;-67
2021/10/17 00:44:54;;;;;;;1073.25;999.90;;;;;;;10.53;65.73;101593.97;681350;28;22374;-67
2021/10/17 00:45:19;;;;;;;1064.50;999.20;;;;;;;10.51;66.14;101594.13;676665;28;157565;-68
2021/10/17 00:45:40;;;;;;;1074.18;999.90;;;;;;;10.52;66.13;101595.84;678971;28;115150;-68
2021/10/17 00:46:01;;;;;;;1075.00;999.90;;;;;;;10.51;66.07;101591.44;683661;28;22422;-67
2021/10/17 00:46:22;;;;;;;1066.30;999.90;;;;;;;10.51;65.98;101596.81;681975;28;45047;-67
2021/10/17 00:46:44;;;;;;;1066.95;999.90;;;;;;;10.50;66.06;101592.44;678717;29;22417;-67
2021/10/17 00:47:05;;;;;;;1066.90;999.90;;;;;;;10.49;66.06;101603.41;676460;29;38278;-67
2021/10/17 00:47:27;;;;;;;1068.78;999.90;;;;;;;10.46;66.18;101591.88;677703;29;23457;-67
2021/10/17 00:47:48;;;;;;;1063.18;997.72;;;;;;;10.46;66.16;101600.00;680326;28;21316;-68
2021/10/17 00:48:10;;;;;;;1060.13;995.38;;;;;;;10.46;66.24;101600.00;683062;28;23710;-67
2021/10/17 00:48:31;;;;;;;1073.93;999.90;;;;;;;10.44;65.86;101595.78;682341;28;45405;-68
2021/10/17 00:48:52;;;;;;;1076.57;999.90;;;;;;;10.45;66.30;101602.84;682282;28;46367;-69
2021/10/17 00:49:14;;;;;;;1069.32;999.90;;;;;;;10.42;66.16;101601.31;685083;28;21532;-67
2021/10/17 00:49:36;;;;;;;1072.18;999.90;;;;;;;10.40;66.13;101597.06;685930;28;23846;-67
2021/10/17 00:49:58;;;;;;;1067.05;999.90;;;;;;;10.41;66.40;101602.31;682250;28;69752;-67
2021/10/17 00:50:19;;;;;;;1071.45;999.90;;;;;;;10.40;66.16;101597.91;683228;28;46336;-68
2021/10/17 00:50:40;;;;;;;1068.80;999.90;;;;;;;10.39;66.43;101596.22;681866;28;21532;-68
2021/10/17 00:51:02;;;;;;;1060.55;995.75;;;;;;;10.39;66.43;101596.22;684019;28;22409;-67
2021/10/17 00:51:24;;;;;;;1068.93;999.90;;;;;;;10.38;66.48;101596.38;685081;28;70197;-67
2021/10/17 00:51:47;;;;;;;1071.43;999.90;;;;;;;10.40;66.17;101597.91;683811;28;23570;-68
2021/10/17 00:52:08;;;;;;;1080.18;999.90;;;;;;;10.38;66.39;101591.00;682345;28;69437;-68
2021/10/17 00:52:30;;;;;;;1063.93;998.63;;;;;;;10.40;66.35;101599.78;681470;28;21509;-68
2021/10/17 00:52:51;;;;;;;1067.47;999.90;;;;;;;10.39;66.52;101598.06;683190;28;44385;-68
2021/10/17 00:53:13;;;;;;;1070.68;999.90;;;;;;;10.40;66.36;101600.59;683366;28;45259;-68
2021/10/17 00:53:34;;;;;;;1060.20;995.55;;;;;;;10.42;66.31;101600.47;684639;28;22160;-68
2021/10/17 00:53:57;;;;;;;1065.00;999.70;;;;;;;10.41;66.58;101607.72;683899;28;22356;-68
2021/10/17 00:54:18;;;;;;;1082.60;999.90;;;;;;;10.40;66.39;101588.97;680422;28;67463;-67
2021/10/17 00:54:41;;;;;;;1075.75;999.90;;;;;;;10.41;66.38;101599.63;683981;28;22418;-68
2021/10/17 00:55:02;;;;;;;1073.93;999.90;;;;;;;10.42;66.36;101600.47;681847;28;67462;-68
2021/10/17 00:55:28;;;;;;;1074.93;999.90;;;;;;;10.40;66.29;101597.06;682665;28;44138;-68
2021/10/17 00:55:49;;;;;;;1075.43;999.90;;;;;;;10.42;66.19;101595.94;679574;28;139301;-67
2021/10/17 00:56:11;;;;;;;1079.13;999.90;;;;;;;10.42;66.44;101595.94;685665;28;22407;-67
2021/10/17 00:56:33;;;;;;;1078.45;999.90;;;;;;;10.43;66.02;101600.31;685134;28;47369;-68
2021/10/17 00:56:54;;;;;;;1078.75;999.90;;;;;;;10.43;66.38;101599.47;684773;28;46190;-68
2021/10/17 00:57:16;;;;;;;1087.25;999.90;;;;;;;10.44;66.00;101598.47;685614;28;22386;-67
2021/10/17 00:57:39;;;;;;;1073.93;999.90;;;;;;;10.42;66.14;101597.75;683437;28;44404;-67
2021/10/17 00:58:01;;;;;;;1073.25;999.90;;;;;;;10.42;66.38;101589.66;683834;28;67132;-67
2021/10/17 00:58:22;;;;;;;1075.18;999.90;;;;;;;10.42;66.14;101595.06;685701;28;45247;-68
2021/10/17 00:58:44;;;;;;;1073.75;999.90;;;;;;;10.41;66.29;101590.69;685412;28;23775;-68
2021/10/17 00:59:05;;;;;;;1078.72;999.90;;;;;;;10.42;65.97;101597.75;684721;28;45093;-68
2021/10/17 00:59:27;;;;;;;1089.95;999.90;;;;;;;10.40;65.98;101592.50;686204;28;22004;-68
2021/10/17 00:59:48;;;;;;;1081.55;999.90;;;;;;;10.42;66.30;101595.06;684558;28;46882;-67
2021/10/17 01:00:11;;;;;;;1084.03;999.90;;;;;;;10.42;66.18;101590.53;685014;28;23460;-68
2021/10/17 01:00:32;;;;;;;1080.70;999.90;;;;;;;10.42;65.95;101593.22;684231;28;69422;-67
2021/10/17 01:00:55;;;;;;;1078.82;999.90;;;;;;;10.42;66.03;101590.53;685537;28;23771;-67
2021/10/17 01:01:16;;;;;;;1074.88;999.90;;;;;;;10.43;66.16;101591.34;685737;28;48026;-67
2021/10/17 01:01:37;;;;;;;1078.80;999.90;;;;;;;10.43;66.13;101596.75;685910;28;22328;-67
2021/10/17 01:01:58;;;;;;;1068.88;999.90;;;;;;;10.43;66.08;101591.34;684387;28;45477;-68
2021/10/17 01:02:19;;;;;;;1077.63;999.90;;;;;;;10.42;66.30;101593.22;684066;28;22457;-68
2021/10/17 01:02:41;;;;;;;1077.57;999.90;;;;;;;10.42;65.96;101597.75;683317;28;22391;-68
2021/10/17 01:03:02;;;;;;;1078.20;999.90;;;;;;;10.42;66.13;101595.94;680235;28;45273;-67
2021/10/17 01:03:25;;;;;;;1081.32;999.90;;;;;;;10.43;66.21;101597.59;681869;28;22395;-68
2021/10/17 01:03:47;;;;;;;1077.13;999.90;;;;;;;10.43;66.22;101591.34;682278;28;67164;-68
2021/10/17 01:04:08;;;;;;;1080.55;999.90;;;;;;;10.44;65.88;101595.78;680153;28;67302;-67
2021/10/17 01:04:31;;;;;;;1082.72;999.90;;;;;;;10.45;65.81;101589.34;682735;28;46373;-67
2021/10/17 01:04:52;;;;;;;1082.63;999.90;;;;;;;10.44;65.86;101587.66;679425;28;45334;-68
2021/10/17 01:05:14;;;;;;;1086.72;999.90;;;;;;;10.42;65.69;101585.13;682954;28;22419;-67
2021/10/17 01:05:36;;;;;;;1095.50;999.90;;;;;;;10.43;66.10;101586.78;683857;28;69457;-67
2021/10/17 01:05:58;;;;;;;1100.93;999.90;;;;;;;10.43;66.07;101591.34;683144;28;45248;-68
2021/10/17 01:06:19;;;;;;;1106.78;999.90;;;;;;;10.41;66.08;101587.97;680222;29;23544;-68
2021/10/17 01:06:40;;;;;;;1115.78;999.90;;;;;;;10.41;65.88;101588.81;677855;29;22423;-67
2021/10/17 01:07:02;;;;;;;1129.25;999.90;;;;;;;10.42;65.96;101590.53;680104;29;22419;-68
2021/10/17 01:07:25;;;;;;;1103.07;999.90;;;;;;;10.42;65.66;101592.34;681623;28;1654;-68
2021/10/17 01:07:46;;;;;;;1077.38;999.90;;;;;;;10.40;65.75;101584.41;681452;28;44375;-67
2021/10/17 01:08:10;;;;;;;1074.70;999.90;;;;;;;10.41;65.78;101586.13;679139;28;115232;-68
2021/10/17 01:08:31;;;;;;;1076.20;999.90;;;;;;;10.39;65.92;101581.88;683539;28;22417;-68
2021/10/17 01:08:54;;;;;;;1078.10;999.90;;;;;;;10.36;65.80;101580.34;684117;28;46345;-68
2021/10/17 01:09:15;;;;;;;1082.78;999.90;;;;;;;10.40;65.90;101586.28;682856;28;45269;-67
2021/10/17 01:09:39;;;;;;;1080.40;999.90;;;;;;;10.40;65.68;101587.09;681146;28;70230;-68
2021/10/17 01:10:04;;;;;;;1082.47;999.90;;;;;;;10.39;65.59;101588.13;679393;28;115244;-68
2021/10/17 01:10:27;;;;;;;1092.00;999.90;;;;;;;10.42;65.60;101589.66;681687;28;47326;-68
2021/10/17 01:10:53;;;;;;;1097.78;999.90;;;;;;;10.41;65.93;101586.13;678194;28;69350;-68
2021/10/17 01:11:15;;;;;;;1111.32;999.90;;;;;;;10.42;65.93;101581.56;675857;28;137186;-68
2021/10/17 01:11:40;;;;;;;1129.20;999.90;;;;;;;10.41;65.75;101583.41;679414;28;45248;-68
2021/10/17 01:12:03;;;;;;;1089.10;999.90;;;;;;;10.42;65.97;101590.53;677363;28;115518;-68
2021/10/17 01:12:24;;;;;;;1076.50;999.90;;;;;;;10.38;66.03;101575.63;677225;29;46669;-68
2021/10/17 01:12:45;;;;;;;1066.47;999.90;;;;;;;10.43;65.92;101586.78;677552;29;21526;-68
2021/10/17 01:13:14;;;;;;;1059.97;996.08;;;;;;;10.43;65.89;101584.09;673629;29;69454;-68
2021/10/17 01:13:36;;;;;;;1067.47;999.90;;;;;;;10.41;65.79;101586.13;671350;29;138038;-68
2021/10/17 01:13:57;;;;;;;1077.85;999.90;;;;;;;10.42;65.94;101590.53;675969;29;44460;-67
2021/10/17 01:14:18;;;;;;;1076.38;999.90;;;;;;;10.42;65.75;101593.22;679025;28;22417;-67
2021/10/17 01:14:39;;;;;;;1064.03;998.28;;;;;;;10.42;65.83;101587.81;679079;29;44345;-68
2021/10/17 01:15:01;;;;;;;1068.22;999.90;;;;;;;10.42;65.81;101595.94;683930;28;22374;-68
2021/10/17 01:15:24;;;;;;;1080.13;999.90;;;;;;;10.43;65.72;101585.97;683020;28;69119;-68
2021/10/17 01:15:49;;;;;;;1072.35;999.90;;;;;;;10.42;65.95;101587.81;681334;28;92230;-67
2021/10/17 01:16:11;;;;;;;1074.30;999.90;;;;;;;10.42;65.68;101593.22;679720;28;67261;-68
2021/10/17 01:16:40;;;;;;;1075.38;999.90;;;;;;;10.43;65.86;101596.75;679663;28;138467;-68
2021/10/17 01:17:01;;;;;;;1080.05;999.90;;;;;;;10.41;65.93;101587.97;679413;28;22427;-68
2021/10/17 01:17:23;;;;;;;1078.95;999.90;;;;;;;10.40;65.89;101586.28;677525;29;46335;-67
2021/10/17 01:17:45;;;;;;;1085.13;999.90;;;;;;;10.40;65.96;101586.28;682092;28;21118;-67
2021/10/17 01:18:06;;;;;;;1080.57;999.90;;;;;;;10.40;65.83;101595.22;680477;28;44983;-67
2021/10/17 01:18:28;;;;;;;1084.47;999.90;;;;;;;10.37;65.67;101581.19;680350;29;2183;-68
2021/10/17 01:18:52;;;;;;;1093.82;999.90;;;;;;;10.37;65.75;101590.13;677469;29;92560;-68
2021/10/17 01:19:17;;;;;;;1076.57;999.90;;;;;;;10.37;65.64;101595.50;678592;29;67470;-67
2021/10/17 01:19:44;;;;;;;1079.15;999.90;;;;;;;10.36;65.78;101588.44;675217;29;92267;-68
2021/10/17 01:20:10;;;;;;;1079.00;999.90;;;;;;;10.33;65.93;101582.47;671809;29;136030;-67
2021/10/17 01:20:31;;;;;;;1077.75;999.90;;;;;;;10.36;66.03;101591.16;677437;29;46287;-68
2021/10/17 01:20:54;;;;;;;1074.10;999.90;;;;;;;10.34;65.97;101582.31;681756;28;47326;-67
2021/10/17 01:21:15;;;;;;;1077.90;999.90;;;;;;;10.35;65.92;101591.28;681481;28;46418;-67
2021/10/17 01:21:38;;;;;;;1072.35;999.90;;;;;;;10.35;65.92;101589.44;682205;28;44341;-67
2021/10/17 01:21:59;;;;;;;1075.47;999.90;;;;;;;10.34;65.97;101587.72;679725;28;44436;-68
2021/10/17 01:22:24;;;;;;;1077.75;999.90;;;;;;;10.33;66.02;101582.47;682494;28;22394;-68
2021/10/17 01:22:47;;;;;;;1079.32;999.90;;;;;;;10.34;66.20;101585.03;678202;28;136474;-67
2021/10/17 01:23:09;;;;;;;1076.50;999.90;;;;;;;10.34;66.01;101578.78;679087;29;45068;-68
2021/10/17 01:23:30;;;;;;;1079.35;999.90;;;;;;;10.31;66.32;101579.06;678711;29;22313;-68
2021/10/17 01:23:53;;;;;;;1067.90;999.90;;;;;;;10.33;66.15;101577.06;677463;29;22372;-67
2021/10/17 01:24:14;;;;;;;1073.43;999.90;;;;;;;10.32;66.07;101572.66;678142;29;44456;-68
2021/10/17 01:24:35;;;;;;;1068.18;999.90;;;;;;;10.32;66.39;101578.06;678634;29;45370;-67
2021/10/17 01:24:57;;;;;;;1067.47;999.90;;;;;;;10.31;66.20;101579.91;681329;28;22390;-68
2021/10/17 01:25:19;;;;;;;1075.72;999.90;;;;;;;10.32;66.42;101583.47;681003;28;23552;-67
2021/10/17 01:25:40;;;;;;;1070.57;999.90;;;;;;;10.32;66.02;101578.06;680545;28;69315;-68
2021/10/17 01:26:01;;;;;;;1069.65;999.90;;;;;;;10.31;66.16;101577.19;683075;28;21685;-67
2021/10/17 01:26:22;;;;;;;1070.40;999.90;;;;;;;10.33;66.37;101579.78;683838;28;22397;-67
2021/10/17 01:26:45;;;;;;;1077.55;999.90;;;;;;;10.33;66.17;101583.34;682304;28;21475;-68
2021/10/17 01:27:07;;;;;;;1065.05;999.65;;;;;;;10.33;66.45;101579.78;683591;28;1004;-67
2021/10/17 01:27:28;;;;;;;1069.45;999.90;;;;;;;10.32;66.39;101576.22;680712;28;44096;-67
2021/10/17 01:27:50;;;;;;;1076.45;999.90;;;;;;;10.32;66.16;101583.47;678089;29;21569;-68
2021/10/17 01:28:11;;;;;;;1074.28;999.90;;;;;;;10.33;66.42;101577.94;679049;28;22413;-68
2021/10/17 01:28:33;;;;;;;1077.03;999.90;;;;;;;10.33;66.28;101577.94;678695;29;44267;-68
2021/10/17 01:28:54;;;;;;;1082.18;999.90;;;;;;;10.34;66.34;101574.22;680868;28;46803;-67
2021/10/17 01:29:15;;;;;;;1073.60;999.90;;;;;;;10.31;66.30;101561.00;681098;28;22409;-68
2021/10/17 01:29:36;;;;;;;1071.25;999.90;;;;;;;10.35;66.25;101575.94;681502;28;21541;-67
2021/10/17 01:30:00;;;;;;;1074.00;999.90;;;;;;;10.37;66.17;101575.78;680894;28;66968;-67
2021/10/17 01:30:21;;;;;;;1065.70;999.80;;;;;;;10.36;66.28;101572.25;681634;28;69426;-68
2021/10/17 01:30:43;;;;;;;1080.63;999.90;;;;;;;10.34;66.03;101568.81;678987;29;46320;-67
2021/10/17 01:31:05;;;;;;;1074.22;999.90;;;;;;;10.37;66.31;101573.06;680010;28;44433;-68
2021/10/17 01:31:33;;;;;;;1070.05;999.90;;;;;;;10.36;66.31;101577.63;680155;28;21506;-68
2021/10/17 01:31:56;;;;;;;1075.95;999.90;;;;;;;10.36;66.22;101568.66;676675;28;161254;-68
2021/10/17 01:32:19;;;;;;;1068.25;999.90;;;;;;;10.36;65.96;101577.63;676790;28;137742;-67
2021/10/17 01:32:41;;;;;;;1069.63;999.90;;;;;;;10.33;66.16;101575.25;676885;29;22497;-68
2021/10/17 01:33:02;;;;;;;1073.57;999.90;;;;;;;10.34;66.04;101568.81;677486;29;22389;-68
2021/10/17 01:33:24;;;;;;;1075.72;999.90;;;;;;;10.35;66.23;101567.00;680487;28;24170;-67
2021/10/17 01:33:45;;;;;;;1076.72;999.90;;;;;;;10.35;66.02;101581.34;678484;29;69607;-67
2021/10/17 01:34:07;;;;;;;1076.88;999.90;;;;;;;10.36;66.17;101569.53;680158;28;22384;-67
2021/10/17 01:34:28;;;;;;;1070.03;999.90;;;;;;;10.36;66.03;101572.25;679069;28;46363;-68
2021/10/17 01:34:51;;;;;;;1073.95;999.90;;;;;;;10.35;66.25;101570.53;682337;28;21533;-68
2021/10/17 01:35:13;;;;;;;1078.28;999.90;;;;;;;10.35;65.99;101565.13;677632;28;44375;-67
2021/10/17 01:35:34;;;;;;;1074.25;999.90;;;;;;;10.35;66.07;101569.69;678040;29;46288;-68
2021/10/17 01:35:55;;;;;;;1078.00;999.90;;;;;;;10.36;66.14;101564.13;683998;28;21676;-68
2021/10/17 01:36:17;;;;;;;1078.35;999.90;;;;;;;10.35;65.91;101565.13;685742;28;22490;-68
2021/10/17 01:36:39;;;;;;;1079.20;999.90;;;;;;;10.33;66.01;101566.28;681632;28;46297;-68
2021/10/17 01:37:00;;;;;;;1082.55;999.90;;;;;;;10.34;66.18;101566.13;679945;28;45381;-68
2021/10/17 01:37:22;;;;;;;1085.73;999.90;;;;;;;10.35;66.11;101567.84;679881;28;44418;-68
2021/10/17 01:37:43;;;;;;;1090.88;999.90;;;;;;;10.35;66.35;101562.44;677933;28;46172;-67
2021/10/17 01:38:06;;;;;;;1100.55;999.90;;;;;;;10.37;66.00;101563.13;677415;29;21508;-67